Time;durP1;ratioP1;P1;durP2;ratioP2;P2;SDS_P1;SDS_P2;PMS_P1;PMS_P2;Temp;Humidity;BMP_temperature;BMP_pressure;BME280_temperature;BME280_humidity;BME280_pressure;Samples;Min_cycle;Max_cycle;Signal;HPM_P1;HPM_P2
2023/05/29 00:01:48;;;;;;;3.60;2.30;;;19.20;48.00;;;;;;5052188;28;20110;-45
2023/05/29 00:04:18;;;;;;;5.40;2.72;;;19.20;48.00;;;;;;5050545;28;20115;-46
2023/05/29 00:06:44;;;;;;;4.50;2.72;;;19.10;48.00;;;;;;5049684;28;20037;-44
2023/05/29 00:09:15;;;;;;;4.75;2.88;;;19.10;48.10;;;;;;5051236;28;20044;-45
2023/05/29 00:11:50;;;;;;;4.68;3.05;;;19.10;48.40;;;;;;5051806;28;20090;-42
2023/05/29 00:14:19;;;;;;;4.43;2.50;;;19.00;48.40;;;;;;5042989;28;20898;-44
2023/05/29 00:16:48;;;;;;;3.40;2.42;;;19.00;48.30;;;;;;5050245;28;20098;-43
2023/05/29 00:19:24;;;;;;;4.10;2.67;;;18.90;48.30;;;;;;5050849;28;20056;-44
2023/05/29 00:21:53;;;;;;;3.53;2.70;;;18.90;48.40;;;;;;5051493;28;20478;-44
2023/05/29 00:24:20;;;;;;;5.47;2.92;;;18.90;48.40;;;;;;5049319;28;20060;-45
2023/05/29 00:26:47;;;;;;;4.88;2.90;;;18.80;48.50;;;;;;5050435;28;20071;-42
2023/05/29 00:29:16;;;;;;;4.25;2.80;;;18.80;48.60;;;;;;5050884;28;20107;-43
2023/05/29 00:31:43;;;;;;;3.00;2.65;;;18.80;48.60;;;;;;5051182;28;20037;-43
2023/05/29 00:34:10;;;;;;;3.65;2.78;;;18.70;48.60;;;;;;5049525;28;20033;-46
2023/05/29 00:36:39;;;;;;;4.25;3.20;;;18.70;48.60;;;;;;5051248;28;20115;-45
2023/05/29 00:39:06;;;;;;;3.70;3.05;;;18.70;48.60;;;;;;5032187;28;20049;-45
2023/05/29 00:41:38;;;;;;;3.70;3.33;;;18.60;48.70;;;;;;5033275;28;20729;-45
2023/05/29 00:44:10;;;;;;;5.72;3.45;;;18.60;48.70;;;;;;5031892;28;20057;-45
2023/05/29 00:46:43;;;;;;;4.03;2.80;;;18.60;48.90;;;;;;5050992;28;20401;-44
2023/05/29 00:49:11;;;;;;;3.85;2.35;;;18.50;48.80;;;;;;5032394;28;20048;-46
2023/05/29 00:51:38;;;;;;;3.33;2.75;;;18.50;48.90;;;;;;5050414;28;20048;-46
2023/05/29 00:54:09;;;;;;;3.22;2.90;;;18.50;49.20;;;;;;5027764;28;20140;-47
2023/05/29 00:56:44;;;;;;;3.38;3.05;;;18.40;49.40;;;;;;5046821;28;20037;-43
2023/05/29 00:59:12;;;;;;;6.68;3.75;;;18.30;49.40;;;;;;5028904;28;20115;-44
2023/05/29 01:01:48;;;;;;;4.47;3.50;;;18.30;49.70;;;;;;5028665;28;20056;-45
2023/05/29 01:04:16;;;;;;;5.38;3.35;;;18.20;49.80;;;;;;5048182;28;20082;-44
2023/05/29 01:06:45;;;;;;;5.25;3.03;;;18.20;49.90;;;;;;5048974;28;20044;-46
2023/05/29 01:09:16;;;;;;;5.80;3.30;;;18.10;50.10;;;;;;5050046;28;20047;-44
2023/05/29 01:12:00;;;;;;;3.42;3.00;;;18.10;50.10;;;;;;5051160;28;20444;-47
2023/05/29 01:14:57;;;;;;;6.47;3.05;;;18.00;50.60;;;;;;5042067;28;20072;-45
2023/05/29 01:17:39;;;;;;;4.45;3.33;;;18.00;51.00;;;;;;5047207;28;20040;-42
2023/05/29 01:20:47;;;;;;;4.13;2.40;;;17.90;50.90;;;;;;5050131;28;20868;-44
2023/05/29 01:23:42;;;;;;;5.38;3.67;;;17.80;51.20;;;;;;5038749;28;20568;-43
2023/05/29 01:26:25;;;;;;;5.03;3.47;;;17.70;51.80;;;;;;5048944;28;20041;-42
2023/05/29 01:28:55;;;;;;;3.72;3.25;;;17.70;51.70;;;;;;5031391;28;20502;-43
2023/05/29 01:31:26;;;;;;;6.10;3.70;;;17.60;51.80;;;;;;5032724;28;20087;-43
2023/05/29 01:34:02;;;;;;;8.05;3.60;;;17.50;52.40;;;;;;5048238;28;20463;-42
2023/05/29 01:36:32;;;;;;;7.18;4.20;;;17.50;52.60;;;;;;5033944;28;20048;-44
2023/05/29 01:39:00;;;;;;;8.80;4.63;;;17.40;52.90;;;;;;5049149;28;20044;-46
2023/05/29 01:41:30;;;;;;;4.75;3.55;;;17.40;53.30;;;;;;5050418;28;20045;-46
2023/05/29 01:44:04;;;;;;;7.20;4.70;;;17.30;53.50;;;;;;5046717;28;20118;-46
2023/05/29 01:46:32;;;;;;;6.35;4.32;;;17.30;53.70;;;;;;5031450;28;20072;-47
2023/05/29 01:49:04;;;;;;;7.22;4.15;;;17.20;53.80;;;;;;5049006;28;20029;-44
2023/05/29 01:51:31;;;;;;;6.57;4.60;;;17.10;54.10;;;;;;5049777;28;20128;-47
2023/05/29 01:54:02;;;;;;;5.78;4.68;;;17.00;54.30;;;;;;5024535;28;20056;-43
2023/05/29 01:56:34;;;;;;;5.88;4.20;;;17.00;54.50;;;;;;5049177;28;20032;-45
2023/05/29 01:59:08;;;;;;;6.43;4.68;;;17.00;54.50;;;;;;5030652;28;20135;-47
2023/05/29 02:01:38;;;;;;;7.05;4.40;;;16.90;54.80;;;;;;5049917;28;20128;-43
2023/05/29 02:04:05;;;;;;;6.68;4.38;;;16.90;54.80;;;;;;5047843;28;20051;-46
2023/05/29 02:06:33;;;;;;;4.32;3.47;;;16.90;54.90;;;;;;5028882;28;20091;-47
2023/05/29 02:09:00;;;;;;;5.55;3.65;;;16.80;54.90;;;;;;5046936;28;20047;-43
2023/05/29 02:11:28;;;;;;;5.60;3.60;;;16.80;55.00;;;;;;5032419;28;20043;-47
2023/05/29 02:13:55;;;;;;;8.00;4.32;;;16.80;55.10;;;;;;5048377;28;20041;-46
2023/05/29 02:16:24;;;;;;;4.93;3.33;;;16.70;55.00;;;;;;5025090;28;20075;-42
2023/05/29 02:18:51;;;;;;;7.03;3.40;;;16.70;55.00;;;;;;5030497;28;20517;-45
2023/05/29 02:21:27;;;;;;;5.88;3.53;;;16.70;54.90;;;;;;5049920;28;20057;-43
2023/05/29 02:23:53;;;;;;;10.00;3.30;;;16.70;54.90;;;;;;5029420;28;20041;-43
2023/05/29 02:26:22;;;;;;;6.95;3.25;;;16.60;54.50;;;;;;5033096;28;20619;-43
2023/05/29 02:28:50;;;;;;;5.03;3.22;;;16.60;54.50;;;;;;5030466;28;20037;-45
2023/05/29 02:31:22;;;;;;;3.97;3.42;;;16.50;54.40;;;;;;5049904;28;20094;-45
2023/05/29 02:33:50;;;;;;;6.43;3.10;;;16.50;54.40;;;;;;5047478;28;20044;-42
2023/05/29 02:36:17;;;;;;;3.90;2.75;;;16.50;54.30;;;;;;5030326;28;20091;-46
2023/05/29 02:38:44;;;;;;;4.85;3.45;;;16.40;54.20;;;;;;5048633;28;20045;-43
2023/05/29 02:41:11;;;;;;;6.15;3.05;;;16.40;54.10;;;;;;5049046;28;20041;-43
2023/05/29 02:43:43;;;;;;;5.10;3.38;;;16.30;54.00;;;;;;5030486;28;20458;-46
2023/05/29 02:46:19;;;;;;;7.35;2.90;;;16.30;54.00;;;;;;5022098;28;20448;-44
2023/05/29 02:48:52;;;;;;;6.55;2.80;;;16.30;54.00;;;;;;5032508;28;20059;-44
2023/05/29 02:51:18;;;;;;;7.25;2.80;;;16.30;53.90;;;;;;5053771;28;20748;-42
2023/05/29 02:53:47;;;;;;;5.45;3.05;;;16.20;53.90;;;;;;5051441;28;20094;-42
2023/05/29 02:56:15;;;;;;;7.40;2.80;;;16.20;53.90;;;;;;5050505;28;20041;-43
2023/05/29 02:58:42;;;;;;;5.22;2.72;;;16.20;53.90;;;;;;5052161;28;20139;-43
2023/05/29 03:01:11;;;;;;;3.85;2.58;;;16.10;53.90;;;;;;5034200;28;20131;-41
2023/05/29 03:03:40;;;;;;;6.57;3.45;;;16.10;53.90;;;;;;5032109;28;20049;-45
2023/05/29 03:06:07;;;;;;;3.75;2.38;;;16.10;53.80;;;;;;5049956;28;20073;-44
2023/05/29 03:08:35;;;;;;;7.32;2.35;;;16.10;53.80;;;;;;5049923;28;20520;-42
2023/05/29 03:11:03;;;;;;;5.35;3.60;;;16.10;53.70;;;;;;5033811;28;20072;-41
2023/05/29 03:13:34;;;;;;;6.60;3.05;;;16.00;53.60;;;;;;5052531;28;20064;-46
2023/05/29 03:16:08;;;;;;;5.65;2.85;;;16.00;53.50;;;;;;5031389;28;20143;-47
2023/05/29 03:18:39;;;;;;;6.97;2.45;;;16.00;53.30;;;;;;5040067;28;20045;-44
2023/05/29 03:21:08;;;;;;;6.60;3.00;;;16.00;53.40;;;;;;5036010;28;20040;-43
2023/05/29 03:23:39;;;;;;;6.07;2.58;;;15.90;53.40;;;;;;5030663;28;20544;-47
2023/05/29 03:26:06;;;;;;;5.57;2.10;;;15.90;53.30;;;;;;5028318;28;20044;-47
2023/05/29 03:28:35;;;;;;;5.20;2.28;;;15.90;53.50;;;;;;5034036;28;20041;-43
2023/05/29 03:31:14;;;;;;;4.27;2.67;;;15.80;53.30;;;;;;5035526;28;20045;-44
2023/05/29 03:33:41;;;;;;;4.05;2.30;;;15.80;53.20;;;;;;5015576;28;20041;-43
2023/05/29 03:36:23;;;;;;;5.72;2.78;;;15.80;53.20;;;;;;5033667;28;20090;-46
2023/05/29 03:38:51;;;;;;;4.07;2.08;;;15.80;53.10;;;;;;5034024;28;20064;-44
2023/05/29 03:41:22;;;;;;;3.50;2.00;;;15.70;53.00;;;;;;5035381;28;20106;-44
2023/05/29 03:43:53;;;;;;;5.88;2.28;;;15.70;53.10;;;;;;5033431;28;20075;-42
2023/05/29 03:46:22;;;;;;;5.38;2.75;;;15.70;53.10;;;;;;5035394;28;20036;-43
2023/05/29 03:48:51;;;;;;;6.47;1.85;;;15.60;53.10;;;;;;5034118;28;20484;-46
2023/05/29 03:51:18;;;;;;;5.78;2.00;;;15.60;53.10;;;;;;5053297;28;20033;-44
2023/05/29 03:53:45;;;;;;;6.15;2.17;;;15.60;53.70;;;;;;5027810;28;20098;-43
2023/05/29 03:56:13;;;;;;;5.93;2.70;;;15.60;53.10;;;;;;5050706;28;20037;-42
2023/05/29 03:58:40;;;;;;;9.13;3.15;;;15.50;53.30;;;;;;5033914;28;20072;-44
2023/05/29 04:01:09;;;;;;;6.18;2.97;;;15.50;53.20;;;;;;5034470;28;20152;-42
2023/05/29 04:03:38;;;;;;;7.18;2.22;;;15.40;53.20;;;;;;5031640;28;20049;-46
2023/05/29 04:06:13;;;;;;;7.38;2.40;;;15.40;53.20;;;;;;5030061;28;20044;-44
2023/05/29 04:08:40;;;;;;;8.63;3.63;;;15.40;53.30;;;;;;5035996;28;20041;-44
2023/05/29 04:11:11;;;;;;;7.10;2.30;;;15.40;53.50;;;;;;5033877;28;20068;-43
2023/05/29 04:13:42;;;;;;;9.45;2.67;;;15.40;53.50;;;;;;5033327;28;20037;-45
2023/05/29 04:16:16;;;;;;;5.50;2.30;;;15.40;53.60;;;;;;5048930;28;20037;-43
2023/05/29 04:18:43;;;;;;;6.93;2.90;;;15.30;53.70;;;;;;5033563;28;20049;-45
2023/05/29 04:21:12;;;;;;;8.23;2.53;;;15.30;53.70;;;;;;5052406;28;20043;-42
2023/05/29 04:23:41;;;;;;;7.70;2.10;;;15.30;54.10;;;;;;5030663;28;20053;-43
2023/05/29 04:26:10;;;;;;;8.25;2.58;;;15.20;54.00;;;;;;5032920;28;20485;-44
2023/05/29 04:28:38;;;;;;;8.25;2.50;;;15.20;54.00;;;;;;5059980;28;20044;-46
2023/05/29 04:31:14;;;;;;;7.97;2.70;;;15.20;54.20;;;;;;5032803;28;20521;-42
2023/05/29 04:33:41;;;;;;;8.05;2.50;;;15.20;54.30;;;;;;5032427;28;20041;-46
2023/05/29 04:36:08;;;;;;;6.68;2.53;;;15.20;54.40;;;;;;5033087;28;20044;-42
2023/05/29 04:38:39;;;;;;;11.30;3.15;;;15.20;54.50;;;;;;5032706;28;20464;-47
2023/05/29 04:41:08;;;;;;;5.68;2.05;;;15.10;54.60;;;;;;5032187;28;20141;-42
2023/05/29 04:43:40;;;;;;;9.13;2.80;;;15.10;54.60;;;;;;5037437;28;20098;-41
2023/05/29 04:46:07;;;;;;;7.47;2.60;;;15.10;54.70;;;;;;5032136;28;20076;-44
2023/05/29 04:48:40;;;;;;;9.35;2.25;;;15.10;54.90;;;;;;5030831;28;20045;-43
2023/05/29 04:51:10;;;;;;;7.53;2.45;;;15.10;55.20;;;;;;5033466;28;20041;-44
2023/05/29 04:53:43;;;;;;;9.85;3.08;;;15.10;55.00;;;;;;5031953;28;20338;-42
2023/05/29 04:56:18;;;;;;;8.73;2.88;;;15.10;55.30;;;;;;5050569;28;20029;-46
2023/05/29 04:58:48;;;;;;;7.28;2.70;;;15.10;55.00;;;;;;5032576;28;20484;-44
2023/05/29 05:01:18;;;;;;;8.38;2.50;;;15.10;54.90;;;;;;5044911;28;20396;-44
2023/05/29 05:03:47;;;;;;;7.07;2.90;;;15.10;55.10;;;;;;5031537;28;20057;-46
2023/05/29 05:06:16;;;;;;;6.72;2.88;;;15.10;55.00;;;;;;5029538;28;20040;-45
2023/05/29 05:08:43;;;;;;;6.95;3.20;;;15.10;55.10;;;;;;5029982;28;20041;-46
2023/05/29 05:11:10;;;;;;;8.63;2.90;;;15.10;55.10;;;;;;5054414;28;20041;-47
2023/05/29 05:13:39;;;;;;;9.43;3.35;;;15.20;55.30;;;;;;5032112;28;20045;-44
2023/05/29 05:16:08;;;;;;;8.80;3.30;;;15.10;55.20;;;;;;5048453;28;20048;-46
2023/05/29 05:18:39;;;;;;;5.95;2.90;;;15.20;55.50;;;;;;5056252;28;20661;-47
2023/05/29 05:21:07;;;;;;;8.60;3.28;;;15.20;55.40;;;;;;5033380;28;20076;-42
2023/05/29 05:23:35;;;;;;;10.48;2.90;;;15.20;55.40;;;;;;5055976;22;20470;-49
2023/05/29 05:26:25;;;;;;;9.50;2.70;;;15.20;55.40;;;;;;5038338;28;20094;-46
2023/05/29 05:28:52;;;;;;;9.48;3.00;;;15.20;55.30;;;;;;5067907;28;20052;-50
2023/05/29 05:31:22;;;;;;;15.15;4.47;;;15.20;55.30;;;;;;5053826;28;20082;-46
2023/05/29 05:33:55;;;;;;;7.93;3.20;;;15.20;55.50;;;;;;5054228;28;20420;-49
2023/05/29 05:36:23;;;;;;;9.23;3.05;;;15.20;55.40;;;;;;5057910;28;20040;-50
2023/05/29 05:39:00;;;;;;;9.70;3.17;;;15.30;55.40;;;;;;5040645;28;20045;-48
2023/05/29 05:41:30;;;;;;;8.20;3.25;;;15.30;55.70;;;;;;5058594;28;20080;-48
2023/05/29 05:43:57;;;;;;;11.13;2.63;;;15.30;55.70;;;;;;5046857;28;20417;-50
2023/05/29 05:46:48;;;;;;;7.97;3.08;;;15.40;55.50;;;;;;5052596;28;20045;-49
2023/05/29 05:49:15;;;;;;;10.15;3.10;;;15.40;55.40;;;;;;5051865;28;20041;-45
2023/05/29 05:51:42;;;;;;;9.38;3.05;;;15.40;55.40;;;;;;5050482;28;20060;-46
2023/05/29 05:54:16;;;;;;;7.60;2.50;;;15.40;55.50;;;;;;5054210;28;20065;-49
2023/05/29 05:56:43;;;;;;;6.90;2.40;;;15.50;55.50;;;;;;5054725;28;20056;-47
2023/05/29 05:59:16;;;;;;;6.63;2.33;;;15.50;55.50;;;;;;5064478;28;20036;-47
2023/05/29 06:01:48;;;;;;;10.05;3.03;;;15.50;55.70;;;;;;5064526;28;20083;-45
2023/05/29 06:04:14;;;;;;;9.13;2.55;;;15.50;55.50;;;;;;5039873;28;20052;-44
2023/05/29 06:06:49;;;;;;;8.40;2.65;;;15.60;55.40;;;;;;5038583;28;20112;-48
2023/05/29 06:09:17;;;;;;;5.68;2.30;;;15.60;55.20;;;;;;5051281;28;20037;-55
2023/05/29 06:11:44;;;;;;;8.30;3.50;;;15.60;55.10;;;;;;5064083;28;20099;-54
2023/05/29 06:14:13;;;;;;;6.45;2.38;;;15.60;55.20;;;;;;5063410;28;20040;-54
2023/05/29 06:16:41;;;;;;;7.07;3.17;;;15.70;55.30;;;;;;5040642;28;20092;-54
2023/05/29 06:19:09;;;;;;;10.80;3.22;;;15.70;55.10;;;;;;5054635;28;20041;-55
2023/05/29 06:21:56;;;;;;;9.18;3.80;;;15.70;55.00;;;;;;5065354;28;20178;-55
2023/05/29 06:24:23;;;;;;;6.75;3.13;;;15.80;55.10;;;;;;5054094;28;20494;-55
2023/05/29 06:26:50;;;;;;;6.60;2.30;;;15.80;55.00;;;;;;5057700;28;20512;-55
2023/05/29 06:29:20;;;;;;;7.30;2.25;;;15.80;54.80;;;;;;5063673;28;20139;-54
2023/05/29 06:31:50;;;;;;;7.43;2.75;;;15.90;55.70;;;;;;5063252;28;20377;-54
2023/05/29 06:34:22;;;;;;;10.77;2.60;;;15.90;55.00;;;;;;5030120;28;20223;-55
2023/05/29 06:36:54;;;;;;;7.57;2.70;;;15.90;55.00;;;;;;5056264;28;20045;-55
2023/05/29 06:39:23;;;;;;;10.43;2.83;;;16.00;54.80;;;;;;5026973;28;20037;-55
2023/05/29 06:41:50;;;;;;;6.32;2.40;;;16.10;54.70;;;;;;5041782;28;20091;-54
2023/05/29 06:44:17;;;;;;;6.68;2.67;;;16.10;54.70;;;;;;5047607;28;20775;-54
2023/05/29 06:46:44;;;;;;;8.65;2.22;;;16.20;54.70;;;;;;5046210;28;20072;-54
2023/05/29 06:49:11;;;;;;;6.97;2.47;;;16.20;54.30;;;;;;5027611;28;20547;-55
2023/05/29 06:51:37;;;;;;;10.02;3.53;;;16.30;54.30;;;;;;5024717;28;20399;-55
2023/05/29 06:54:19;;;;;;;10.27;3.17;;;16.30;54.10;;;;;;5026988;28;20042;-55
2023/05/29 06:56:48;;;;;;;7.00;2.30;;;16.40;54.00;;;;;;5044842;28;20292;-54
2023/05/29 06:59:32;;;;;;;7.35;2.63;;;16.40;53.90;;;;;;5049896;28;20413;-55
2023/05/29 07:01:59;;;;;;;9.63;2.08;;;16.50;53.70;;;;;;5041291;28;20038;-55
2023/05/29 07:04:27;;;;;;;6.65;2.03;;;16.50;53.70;;;;;;5037500;28;20049;-54
2023/05/29 07:06:54;;;;;;;9.75;2.95;;;16.60;53.80;;;;;;5032150;28;20042;-54
2023/05/29 07:09:20;;;;;;;9.85;3.38;;;16.60;53.90;;;;;;5049202;28;20045;-55
2023/05/29 07:11:47;;;;;;;7.97;2.45;;;16.60;54.00;;;;;;5037193;28;20045;-56
2023/05/29 07:14:14;;;;;;;8.70;2.53;;;16.60;53.80;;;;;;5035025;28;20057;-52
2023/05/29 07:16:41;;;;;;;8.10;2.67;;;16.60;53.60;;;;;;5023395;28;20057;-54
2023/05/29 07:19:07;;;;;;;9.73;3.35;;;16.70;53.60;;;;;;5048433;28;20049;-54
2023/05/29 07:21:48;;;;;;;10.60;3.13;;;16.70;53.60;;;;;;5047735;28;20037;-52
2023/05/29 07:24:17;;;;;;;6.13;2.33;;;16.80;53.70;;;;;;5019381;28;20073;-55
2023/05/29 07:26:44;;;;;;;7.53;2.55;;;16.80;53.30;;;;;;5037803;28;20049;-55
2023/05/29 07:29:12;;;;;;;6.88;2.65;;;16.90;53.30;;;;;;5049411;28;20516;-54
2023/05/29 07:31:40;;;;;;;8.68;2.63;;;16.90;53.50;;;;;;5047421;28;20041;-56
2023/05/29 07:34:08;;;;;;;8.43;2.75;;;16.90;53.30;;;;;;5027216;28;20072;-55
2023/05/29 07:36:35;;;;;;;5.88;2.30;;;17.00;53.10;;;;;;5047958;28;20095;-55
2023/05/29 07:39:07;;;;;;;7.10;2.73;;;17.10;53.10;;;;;;5036918;28;20187;-55
2023/05/29 07:41:34;;;;;;;7.72;3.10;;;17.10;52.80;;;;;;5042426;28;20384;-55
2023/05/29 07:44:02;;;;;;;6.60;2.97;;;17.10;52.80;;;;;;5031206;28;20055;-53
2023/05/29 07:46:30;;;;;;;9.00;2.67;;;17.10;52.60;;;;;;5048708;28;20063;-55
2023/05/29 07:49:15;;;;;;;7.57;2.45;;;17.10;52.70;;;;;;5039557;28;20046;-56
2023/05/29 07:51:45;;;;;;;6.18;2.35;;;17.20;52.90;;;;;;5035759;28;20144;-55
2023/05/29 07:54:12;;;;;;;7.38;2.08;;;17.20;52.70;;;;;;5021190;28;20536;-55
2023/05/29 07:56:40;;;;;;;8.20;2.58;;;17.30;53.10;;;;;;5029693;28;20041;-55
2023/05/29 07:59:08;;;;;;;7.78;3.00;;;17.30;52.80;;;;;;5038967;28;20568;-55
2023/05/29 08:01:37;;;;;;;6.88;2.72;;;17.40;52.60;;;;;;5032268;28;20803;-55
2023/05/29 08:04:05;;;;;;;6.07;2.50;;;17.40;52.40;;;;;;5024681;28;20657;-55
2023/05/29 08:06:32;;;;;;;6.22;2.35;;;17.50;52.40;;;;;;5021162;28;20049;-51
2023/05/29 08:08:59;;;;;;;7.15;2.50;;;17.50;52.20;;;;;;5046780;28;20040;-55
2023/05/29 08:11:27;;;;;;;6.57;2.58;;;17.60;52.50;;;;;;5041196;28;20136;-55
2023/05/29 08:13:54;;;;;;;7.80;2.85;;;17.60;52.20;;;;;;5038575;28;20137;-54
2023/05/29 08:16:22;;;;;;;10.55;3.67;;;17.70;52.30;;;;;;5029638;28;20048;-53
2023/05/29 08:18:51;;;;;;;8.30;2.40;;;17.70;51.80;;;;;;5049749;28;20063;-55
2023/05/29 08:21:17;;;;;;;5.82;2.88;;;17.80;52.00;;;;;;5027716;28;20043;-51
2023/05/29 08:23:44;;;;;;;11.07;4.22;;;17.80;52.10;;;;;;5022264;28;20557;-55
2023/05/29 08:26:12;;;;;;;12.65;2.75;;;17.80;52.30;;;;;;5025083;28;20417;-54
2023/05/29 08:28:39;;;;;;;10.25;3.15;;;17.90;52.20;;;;;;5041845;28;20075;-55
2023/05/29 08:31:08;;;;;;;8.48;3.78;;;17.90;51.90;;;;;;5034938;28;20474;-54
2023/05/29 08:33:36;;;;;;;7.82;2.45;;;17.90;52.00;;;;;;5026829;28;20041;-55
2023/05/29 08:36:03;;;;;;;7.35;2.38;;;18.00;51.80;;;;;;5040824;28;20107;-54
2023/05/29 08:38:30;;;;;;;6.10;2.08;;;18.00;51.70;;;;;;5029839;28;20094;-55
2023/05/29 08:40:58;;;;;;;10.05;3.47;;;18.00;52.10;;;;;;5041356;28;20038;-54
2023/05/29 08:43:28;;;;;;;7.75;2.67;;;18.00;51.70;;;;;;5043760;28;20073;-51
2023/05/29 08:45:58;;;;;;;7.00;3.00;;;18.10;51.60;;;;;;5027686;28;20077;-55
2023/05/29 08:48:27;;;;;;;12.40;3.30;;;18.10;51.50;;;;;;5035789;28;20047;-55
2023/05/29 08:50:56;;;;;;;7.72;2.67;;;18.10;51.60;;;;;;5045311;28;20075;-55
2023/05/29 08:53:24;;;;;;;7.60;2.92;;;18.20;51.60;;;;;;5039897;28;20061;-53
2023/05/29 08:55:52;;;;;;;8.27;2.50;;;18.20;51.50;;;;;;5027738;28;20461;-55
2023/05/29 08:58:23;;;;;;;6.03;2.10;;;18.30;51.50;;;;;;5042764;28;20401;-54
2023/05/29 09:00:50;;;;;;;9.75;2.90;;;18.30;51.60;;;;;;5044965;28;20045;-54
2023/05/29 09:03:17;;;;;;;6.95;2.80;;;18.40;51.70;;;;;;5021941;28;20091;-55
2023/05/29 09:05:45;;;;;;;7.93;2.15;;;18.40;51.60;;;;;;5028529;28;20068;-52
2023/05/29 09:08:13;;;;;;;10.80;2.90;;;18.50;51.10;;;;;;5048037;28;20071;-55
2023/05/29 09:10:41;;;;;;;8.15;2.42;;;18.60;51.10;;;;;;5045063;28;20057;-55
2023/05/29 09:13:09;;;;;;;9.40;2.90;;;18.60;51.00;;;;;;5028619;28;20128;-55
2023/05/29 09:15:38;;;;;;;6.03;2.22;;;18.70;51.00;;;;;;5047682;28;20044;-53
2023/05/29 09:18:05;;;;;;;9.88;2.60;;;18.70;50.90;;;;;;5047316;28;20497;-54
2023/05/29 09:20:33;;;;;;;5.70;2.67;;;18.80;51.40;;;;;;5023959;28;20037;-51
2023/05/29 09:23:05;;;;;;;6.55;2.38;;;18.80;51.10;;;;;;5046375;28;20045;-53
2023/05/29 09:25:46;;;;;;;11.10;3.67;;;18.90;51.30;;;;;;5032398;28;20124;-55
2023/05/29 09:28:13;;;;;;;5.45;2.70;;;18.90;50.70;;;;;;5046781;28;20592;-54
2023/05/29 09:30:42;;;;;;;7.30;2.67;;;18.90;50.50;;;;;;5046806;28;20443;-54
2023/05/29 09:33:11;;;;;;;7.07;3.13;;;19.00;50.40;;;;;;5029421;28;20069;-55
2023/05/29 09:35:49;;;;;;;7.95;2.83;;;19.00;50.30;;;;;;5043025;28;20124;-55
2023/05/29 09:38:18;;;;;;;7.90;2.67;;;19.00;50.60;;;;;;5027196;28;20041;-54
2023/05/29 09:40:47;;;;;;;9.80;3.83;;;19.00;50.50;;;;;;5031880;28;20135;-53
2023/05/29 09:43:19;;;;;;;8.70;3.83;;;19.10;50.10;;;;;;5035210;28;20128;-54
2023/05/29 09:45:48;;;;;;;6.28;2.30;;;19.20;50.60;;;;;;5047027;28;20052;-54
2023/05/29 09:48:16;;;;;;;6.40;2.40;;;19.20;50.30;;;;;;5030941;28;20120;-52
2023/05/29 09:50:47;;;;;;;5.68;2.13;;;19.20;50.10;;;;;;5036703;28;20049;-55
2023/05/29 09:53:20;;;;;;;7.43;2.58;;;19.30;50.60;;;;;;5047608;28;20041;-55
2023/05/29 09:55:47;;;;;;;7.68;2.42;;;19.40;50.10;;;;;;5029516;28;20121;-53
2023/05/29 09:58:18;;;;;;;9.10;3.42;;;19.40;49.70;;;;;;5037370;28;20045;-55
2023/05/29 10:00:47;;;;;;;4.82;2.25;;;19.50;49.80;;;;;;5040478;28;20041;-55
2023/05/29 10:03:14;;;;;;;7.28;3.42;;;19.50;49.20;;;;;;5041019;28;20103;-54
2023/05/29 10:05:43;;;;;;;10.18;4.25;;;19.60;49.90;;;;;;5034584;28;20052;-54
2023/05/29 10:08:15;;;;;;;4.82;2.45;;;19.60;48.80;;;;;;5048492;28;20764;-51
2023/05/29 10:10:46;;;;;;;8.23;2.58;;;19.70;48.80;;;;;;5049037;28;20049;-54
2023/05/29 10:13:14;;;;;;;6.88;2.05;;;19.70;49.20;;;;;;5035283;28;20039;-55
2023/05/29 10:15:44;;;;;;;7.03;3.10;;;19.70;49.20;;;;;;5035884;28;20041;-54
2023/05/29 10:18:23;;;;;;;8.07;2.63;;;19.80;49.40;;;;;;5047690;28;20048;-54
2023/05/29 10:20:52;;;;;;;7.88;2.85;;;19.80;48.90;;;;;;5047275;28;20593;-55
2023/05/29 10:23:23;;;;;;;6.63;2.45;;;19.90;49.30;;;;;;5039113;28;20064;-55
2023/05/29 10:25:53;;;;;;;6.68;2.10;;;20.00;49.80;;;;;;5035443;28;20049;-55
2023/05/29 10:28:23;;;;;;;7.47;2.75;;;20.00;49.10;;;;;;5029341;28;20547;-55
2023/05/29 10:31:08;;;;;;;5.00;2.75;;;20.10;48.70;;;;;;5048871;28;20524;-54
2023/05/29 10:33:53;;;;;;;4.68;2.00;;;20.20;48.30;;;;;;5037954;28;20497;-55
2023/05/29 10:36:26;;;;;;;6.40;2.97;;;20.30;48.90;;;;;;5031228;28;20120;-55
2023/05/29 10:38:53;;;;;;;5.68;2.45;;;20.40;48.30;;;;;;5028593;28;20087;-54
2023/05/29 10:41:26;;;;;;;4.90;2.00;;;20.50;48.50;;;;;;5048488;28;20069;-53
2023/05/29 10:43:58;;;;;;;8.60;2.25;;;20.60;48.50;;;;;;5032869;28;20072;-51
2023/05/29 10:46:47;;;;;;;6.72;2.22;;;20.70;48.10;;;;;;5023570;28;20383;-56
2023/05/29 10:49:18;;;;;;;10.65;2.92;;;20.90;48.30;;;;;;5050760;28;20057;-55
2023/05/29 10:51:45;;;;;;;6.85;2.58;;;21.00;47.70;;;;;;5036043;28;20057;-55
2023/05/29 10:54:13;;;;;;;4.03;2.35;;;21.10;47.40;;;;;;5043330;28;20136;-55
2023/05/29 10:56:43;;;;;;;4.95;2.25;;;21.30;47.60;;;;;;5030742;28;20040;-55
2023/05/29 10:59:10;;;;;;;4.90;2.08;;;21.30;46.80;;;;;;5028132;28;20038;-55
2023/05/29 11:01:40;;;;;;;7.05;2.25;;;21.40;46.70;;;;;;5046892;28;20065;-55
2023/05/29 11:04:15;;;;;;;5.57;2.00;;;21.50;45.90;;;;;;5038420;28;20049;-53
2023/05/29 11:06:42;;;;;;;5.70;2.13;;;21.50;46.00;;;;;;5038245;28;20116;-55
2023/05/29 11:09:30;;;;;;;5.78;2.53;;;21.50;46.30;;;;;;5050540;28;20079;-55
2023/05/29 11:12:32;;;;;;;6.63;2.67;;;21.70;46.80;;;;;;5040631;28;20042;-55
2023/05/29 11:15:03;;;;;;;7.35;2.80;;;21.80;46.40;;;;;;5041235;28;20052;-55
2023/05/29 11:17:45;;;;;;;3.90;2.42;;;21.80;46.40;;;;;;5045377;28;20424;-55
2023/05/29 11:20:33;;;;;;;5.00;2.63;;;21.90;45.70;;;;;;5042951;28;20045;-54
2023/05/29 11:23:08;;;;;;;7.53;2.47;;;22.00;45.40;;;;;;5040469;28;20075;-55
2023/05/29 11:25:37;;;;;;;7.25;2.70;;;22.00;45.00;;;;;;5036216;28;20064;-55
2023/05/29 11:28:08;;;;;;;5.85;2.53;;;22.00;45.50;;;;;;5025885;28;20109;-53
2023/05/29 11:30:46;;;;;;;6.03;2.00;;;22.10;45.70;;;;;;5047341;28;20037;-54
2023/05/29 11:33:26;;;;;;;5.75;2.15;;;22.20;45.10;;;;;;5045761;28;20048;-54
2023/05/29 11:35:57;;;;;;;4.95;2.08;;;22.20;44.80;;;;;;5022825;28;20042;-53
2023/05/29 11:38:25;;;;;;;5.70;1.83;;;22.30;45.40;;;;;;5043494;28;20474;-54
2023/05/29 11:40:55;;;;;;;7.43;2.25;;;22.30;45.40;;;;;;5050552;28;20548;-54
2023/05/29 11:43:22;;;;;;;6.53;2.20;;;22.40;44.90;;;;;;5024038;28;20053;-53
2023/05/29 11:45:49;;;;;;;6.10;2.40;;;22.40;45.00;;;;;;5037585;28;20052;-54
2023/05/29 11:48:16;;;;;;;7.18;2.63;;;22.50;44.50;;;;;;5046587;28;20075;-55
2023/05/29 11:50:43;;;;;;;5.32;2.40;;;22.60;44.10;;;;;;5049735;28;20040;-55
2023/05/29 11:53:11;;;;;;;7.28;2.60;;;22.60;44.40;;;;;;5034619;28;20048;-54
2023/05/29 11:55:38;;;;;;;6.85;2.20;;;22.60;44.10;;;;;;5023967;28;20076;-55
2023/05/29 11:58:06;;;;;;;7.20;2.28;;;22.70;44.00;;;;;;5044284;28;20044;-55
2023/05/29 12:00:35;;;;;;;5.45;1.85;;;22.70;43.80;;;;;;5050076;28;20048;-55
2023/05/29 12:03:04;;;;;;;7.80;2.35;;;22.80;43.60;;;;;;5029300;28;20078;-55
2023/05/29 12:05:55;;;;;;;3.55;2.33;;;22.90;43.50;;;;;;5049050;28;20037;-54
2023/05/29 12:08:24;;;;;;;4.70;2.17;;;22.90;43.30;;;;;;5043424;28;20047;-55
2023/05/29 12:10:52;;;;;;;4.10;2.30;;;23.00;43.70;;;;;;5049063;28;20482;-55
2023/05/29 12:13:20;;;;;;;9.40;2.53;;;23.10;42.90;;;;;;5027986;28;20510;-54
2023/05/29 12:15:48;;;;;;;5.88;2.65;;;23.20;42.50;;;;;;5046223;28;20694;-56
2023/05/29 12:18:15;;;;;;;5.40;2.05;;;23.20;42.30;;;;;;5047268;28;20090;-55
2023/05/29 12:20:42;;;;;;;4.65;1.95;;;23.20;43.00;;;;;;5037496;28;20065;-54
2023/05/29 12:23:09;;;;;;;5.25;2.17;;;23.30;42.70;;;;;;5038448;28;20049;-56
2023/05/29 12:25:36;;;;;;;5.68;2.03;;;23.30;42.50;;;;;;5030407;28;20120;-55
2023/05/29 12:28:05;;;;;;;5.70;2.08;;;23.40;42.70;;;;;;5026298;28;20105;-55
2023/05/29 12:30:38;;;;;;;6.13;2.20;;;23.50;42.70;;;;;;5046190;28;20037;-56
2023/05/29 12:33:06;;;;;;;6.00;2.28;;;23.70;41.90;;;;;;5046478;28;20044;-55
2023/05/29 12:35:33;;;;;;;6.07;2.25;;;23.80;41.90;;;;;;5044770;28;20118;-54
2023/05/29 12:38:08;;;;;;;3.53;2.25;;;24.00;42.10;;;;;;5031446;28;20041;-56
2023/05/29 12:40:36;;;;;;;6.47;2.38;;;24.00;41.10;;;;;;5046394;28;20029;-55
2023/05/29 12:43:06;;;;;;;5.85;2.40;;;24.20;41.30;;;;;;5046865;28;20099;-54
2023/05/29 12:45:34;;;;;;;6.82;2.83;;;24.30;41.10;;;;;;5042946;28;20046;-55
2023/05/29 12:48:05;;;;;;;6.95;2.30;;;24.40;41.00;;;;;;5022560;28;20421;-54
2023/05/29 12:50:37;;;;;;;8.25;2.33;;;24.50;40.60;;;;;;5049967;28;20446;-54
2023/05/29 12:53:12;;;;;;;7.27;2.40;;;24.60;40.70;;;;;;5037869;28;20159;-55
2023/05/29 12:55:40;;;;;;;5.28;2.13;;;24.70;40.20;;;;;;5028234;28;20042;-55
2023/05/29 12:58:08;;;;;;;3.90;2.13;;;24.80;40.20;;;;;;5045465;28;20041;-55
2023/05/29 13:00:36;;;;;;;4.28;2.17;;;24.90;40.10;;;;;;5038982;28;20045;-55
2023/05/29 13:03:03;;;;;;;3.85;1.80;;;25.00;40.00;;;;;;5039697;28;20052;-53